Time;durP1;ratioP1;P1;durP2;ratioP2;P2;SDS_P1;SDS_P2;PMS_P1;PMS_P2;Temp;Humidity;BMP_temperature;BMP_pressure;BME280_temperature;BME280_humidity;BME280_pressure;Samples;Min_cycle;Max_cycle;Signal;HPM_P1;HPM_P2
2021/10/26 00:02:16;;;;;;;9.38;5.22;;;8.10;80.00;;;;;;5114260;28;20074;-74
2021/10/26 00:04:42;;;;;;;7.53;4.93;;;8.00;80.70;;;;;;5095630;28;20114;-73
2021/10/26 00:07:07;;;;;;;12.93;5.30;;;8.10;80.80;;;;;;5114173;28;20023;-73
2021/10/26 00:09:33;;;;;;;7.63;4.75;;;8.00;81.30;;;;;;5114141;28;20459;-74
2021/10/26 00:11:59;;;;;;;9.27;4.90;;;8.10;81.10;;;;;;5113916;28;20024;-73
2021/10/26 00:14:25;;;;;;;8.63;5.43;;;8.10;80.60;;;;;;5113911;28;20011;-73
2021/10/26 00:16:51;;;;;;;9.77;5.40;;;8.10;80.30;;;;;;5095555;28;20034;-74
2021/10/26 00:19:17;;;;;;;7.78;5.00;;;8.10;80.40;;;;;;5113951;28;20107;-73
2021/10/26 00:21:43;;;;;;;9.57;6.07;;;8.10;80.50;;;;;;5113676;28;20059;-74
2021/10/26 00:24:09;;;;;;;10.70;5.75;;;8.10;80.70;;;;;;5113636;28;20491;-73
2021/10/26 00:26:35;;;;;;;12.40;5.80;;;8.00;80.90;;;;;;5113677;28;20047;-73
2021/10/26 00:29:00;;;;;;;8.77;5.90;;;8.00;81.00;;;;;;5113755;28;20019;-75
2021/10/26 00:31:26;;;;;;;9.48;5.55;;;8.00;81.70;;;;;;5113706;28;20051;-73
2021/10/26 00:33:52;;;;;;;9.00;5.95;;;7.90;82.10;;;;;;5113786;28;20544;-73
2021/10/26 00:36:18;;;;;;;11.65;5.90;;;7.90;82.30;;;;;;5113830;28;20020;-73
2021/10/26 00:38:44;;;;;;;11.38;5.93;;;8.00;82.40;;;;;;5113185;28;20105;-73
2021/10/26 00:41:10;;;;;;;9.02;5.63;;;7.90;82.30;;;;;;5095271;28;20016;-80
2021/10/26 00:43:35;;;;;;;11.57;5.93;;;7.90;82.50;;;;;;5113642;28;20042;-82
2021/10/26 00:46:01;;;;;;;10.07;5.97;;;7.90;82.70;;;;;;5113666;28;20485;-82
2021/10/26 00:48:27;;;;;;;11.43;6.75;;;7.90;82.70;;;;;;5113373;28;20026;-76
2021/10/26 00:50:53;;;;;;;11.93;6.35;;;8.00;82.50;;;;;;5113778;28;20476;-82
2021/10/26 00:53:19;;;;;;;13.13;6.47;;;8.00;82.50;;;;;;5113533;28;20055;-77
2021/10/26 00:55:49;;;;;;;11.77;6.50;;;8.00;82.80;;;;;;5112743;28;20106;-79
2021/10/26 00:58:16;;;;;;;12.40;6.32;;;8.00;83.40;;;;;;5113664;28;20403;-81
2021/10/26 01:00:42;;;;;;;10.05;6.53;;;8.00;83.80;;;;;;5113454;28;20027;-81
2021/10/26 01:03:08;;;;;;;13.73;6.53;;;8.10;84.60;;;;;;5113374;28;20099;-81
2021/10/26 01:05:34;;;;;;;13.07;6.20;;;8.10;83.10;;;;;;5113457;28;20115;-80
2021/10/26 01:08:00;;;;;;;10.68;5.80;;;8.10;82.70;;;;;;5095190;28;20041;-79
2021/10/26 01:10:26;;;;;;;11.25;6.40;;;8.20;82.50;;;;;;5113421;28;20406;-80
2021/10/26 01:12:51;;;;;;;10.48;6.70;;;8.20;82.20;;;;;;5113335;28;20023;-79
2021/10/26 01:15:17;;;;;;;9.43;6.32;;;8.20;81.80;;;;;;5113394;28;20024;-76
2021/10/26 01:17:44;;;;;;;10.98;6.35;;;8.30;81.90;;;;;;5113180;28;20020;-74
2021/10/26 01:20:10;;;;;;;12.20;6.15;;;8.20;81.80;;;;;;5113332;28;20102;-82
2021/10/26 01:22:39;;;;;;;11.02;6.45;;;8.20;81.70;;;;;;5113329;28;20535;-75
2021/10/26 01:25:10;;;;;;;16.95;7.47;;;8.30;81.80;;;;;;5113180;28;20047;-74
2021/10/26 01:27:41;;;;;;;10.05;5.68;;;8.20;81.70;;;;;;5094942;28;20388;-75
2021/10/26 01:30:09;;;;;;;12.80;6.72;;;8.20;81.80;;;;;;5113443;28;20024;-73
2021/10/26 01:32:34;;;;;;;15.68;6.80;;;8.30;82.10;;;;;;5113132;28;20016;-73
2021/10/26 01:35:00;;;;;;;9.60;6.10;;;8.30;82.30;;;;;;5113090;28;20026;-75
2021/10/26 01:37:25;;;;;;;10.18;5.82;;;8.30;82.30;;;;;;5094650;28;20020;-74
2021/10/26 01:39:51;;;;;;;10.70;6.28;;;8.30;82.30;;;;;;5112741;28;20039;-80
2021/10/26 01:42:17;;;;;;;11.13;5.43;;;8.40;82.10;;;;;;5113118;28;20030;-73
2021/10/26 01:44:43;;;;;;;14.57;6.38;;;8.40;82.20;;;;;;5112585;28;20396;-73
2021/10/26 01:47:09;;;;;;;8.98;5.53;;;8.40;82.00;;;;;;5113036;28;20031;-73
2021/10/26 01:49:35;;;;;;;11.77;5.82;;;8.40;82.00;;;;;;5112872;28;20023;-73
2021/10/26 01:52:00;;;;;;;10.43;6.35;;;8.40;82.00;;;;;;5113014;28;20041;-73
2021/10/26 01:54:26;;;;;;;14.10;5.78;;;8.50;81.90;;;;;;5112787;28;20379;-74
2021/10/26 01:56:51;;;;;;;10.20;6.18;;;8.50;81.90;;;;;;5112886;28;20043;-73
2021/10/26 01:59:17;;;;;;;14.18;6.88;;;8.50;82.40;;;;;;5112827;28;20567;-74
2021/10/26 02:01:42;;;;;;;10.18;6.10;;;8.50;82.40;;;;;;5112740;28;20020;-73
2021/10/26 02:04:08;;;;;;;14.20;7.22;;;8.50;82.30;;;;;;5112931;28;20035;-73
2021/10/26 02:06:34;;;;;;;11.18;6.53;;;8.50;82.00;;;;;;5114697;28;20019;-73
2021/10/26 02:09:00;;;;;;;12.30;6.10;;;8.50;82.10;;;;;;5116600;28;20019;-73
2021/10/26 02:11:26;;;;;;;9.60;5.85;;;8.60;81.80;;;;;;5116468;28;20028;-73
2021/10/26 02:13:52;;;;;;;10.73;6.20;;;8.60;81.70;;;;;;5116783;28;20368;-73
2021/10/26 02:16:18;;;;;;;9.45;5.35;;;8.60;82.30;;;;;;5116515;28;20042;-74
2021/10/26 02:18:44;;;;;;;10.32;5.78;;;8.70;81.60;;;;;;5116363;28;20518;-73
2021/10/26 02:21:10;;;;;;;10.77;6.18;;;8.70;81.60;;;;;;5116896;28;20024;-72
2021/10/26 02:23:35;;;;;;;9.63;6.13;;;8.80;81.60;;;;;;5133858;28;20039;-75
2021/10/26 02:26:01;;;;;;;9.57;5.78;;;8.80;81.50;;;;;;5139548;28;20023;-73
2021/10/26 02:28:27;;;;;;;8.38;5.45;;;8.90;81.40;;;;;;5139700;28;20094;-74
2021/10/26 02:30:52;;;;;;;10.38;5.55;;;8.90;81.10;;;;;;5139356;28;20023;-74
2021/10/26 02:33:18;;;;;;;8.85;5.20;;;8.90;81.10;;;;;;5138406;28;20508;-74
2021/10/26 02:35:44;;;;;;;9.48;5.85;;;9.00;81.00;;;;;;5118912;28;20028;-73
2021/10/26 02:38:09;;;;;;;9.45;5.93;;;9.00;81.10;;;;;;5115930;28;20032;-73
2021/10/26 02:40:35;;;;;;;9.05;5.57;;;9.00;81.20;;;;;;5115386;28;20073;-73
2021/10/26 02:43:01;;;;;;;9.15;5.25;;;9.00;81.20;;;;;;5115876;28;20022;-73
2021/10/26 02:45:29;;;;;;;9.13;6.10;;;9.10;81.40;;;;;;5116162;28;20039;-74
2021/10/26 02:47:58;;;;;;;7.97;5.07;;;9.10;81.50;;;;;;5115705;28;20058;-73
2021/10/26 02:50:24;;;;;;;11.27;6.00;;;9.10;81.40;;;;;;5115282;28;20020;-74
2021/10/26 02:52:50;;;;;;;9.50;5.20;;;9.10;81.40;;;;;;5115870;28;20095;-73
2021/10/26 02:55:15;;;;;;;8.32;5.55;;;9.10;81.50;;;;;;5115785;28;20030;-74
2021/10/26 02:57:42;;;;;;;8.52;5.53;;;9.10;81.70;;;;;;5115495;28;20023;-73
2021/10/26 03:00:10;;;;;;;9.23;5.88;;;9.10;82.00;;;;;;5115574;28;20102;-73
2021/10/26 03:02:37;;;;;;;7.60;5.38;;;9.10;82.30;;;;;;5115368;28;20020;-73
2021/10/26 03:05:03;;;;;;;10.05;5.90;;;9.10;82.20;;;;;;5115477;28;20111;-73
2021/10/26 03:07:29;;;;;;;8.75;5.35;;;9.20;82.20;;;;;;5115288;28;20020;-73
2021/10/26 03:09:54;;;;;;;9.63;6.07;;;9.10;82.30;;;;;;5115397;28;20475;-72
2021/10/26 03:12:21;;;;;;;11.93;6.18;;;9.10;82.30;;;;;;5115492;28;20364;-73
2021/10/26 03:14:47;;;;;;;9.43;5.53;;;9.10;82.40;;;;;;5115007;28;20472;-73
2021/10/26 03:17:12;;;;;;;8.43;5.60;;;9.10;82.50;;;;;;5114734;28;20034;-74
2021/10/26 03:19:38;;;;;;;8.98;5.57;;;9.10;82.50;;;;;;5115011;28;20533;-74
2021/10/26 03:22:03;;;;;;;10.85;6.20;;;9.10;83.10;;;;;;5114986;28;20028;-74
2021/10/26 03:24:29;;;;;;;9.10;5.57;;;9.10;83.00;;;;;;5113961;28;20039;-73
2021/10/26 03:26:55;;;;;;;9.13;5.80;;;9.10;83.00;;;;;;5115000;28;20035;-73
2021/10/26 03:29:21;;;;;;;10.32;6.43;;;9.10;83.30;;;;;;5117005;28;20068;-74
2021/10/26 03:31:49;;;;;;;10.93;5.47;;;9.10;83.30;;;;;;5119852;28;20016;-74
2021/10/26 03:34:15;;;;;;;9.45;6.05;;;9.10;83.40;;;;;;5114944;28;20020;-74
2021/10/26 03:36:41;;;;;;;9.77;5.80;;;9.10;83.50;;;;;;5096566;28;20027;-74
2021/10/26 03:39:06;;;;;;;10.70;6.82;;;9.10;83.50;;;;;;5114672;28;20051;-73
2021/10/26 03:41:32;;;;;;;10.50;6.90;;;9.10;83.60;;;;;;5114722;28;20043;-74
2021/10/26 03:43:57;;;;;;;13.82;6.47;;;9.00;83.60;;;;;;5114605;28;20039;-74
2021/10/26 03:46:23;;;;;;;11.48;7.05;;;9.00;83.80;;;;;;5114518;28;20023;-74
2021/10/26 03:48:48;;;;;;;11.50;6.93;;;9.00;84.00;;;;;;5115996;28;20107;-74
2021/10/26 03:51:14;;;;;;;17.17;9.23;;;9.00;84.20;;;;;;5096638;28;20376;-81
2021/10/26 03:53:40;;;;;;;13.52;8.88;;;9.00;84.10;;;;;;5114742;28;20111;-82
2021/10/26 03:56:06;;;;;;;14.80;9.00;;;8.90;84.20;;;;;;5114790;28;20024;-74
2021/10/26 03:58:33;;;;;;;11.82;7.65;;;8.90;84.50;;;;;;5124339;28;20030;-74
2021/10/26 04:00:59;;;;;;;16.98;8.30;;;8.90;84.40;;;;;;5119333;28;20080;-73
2021/10/26 04:03:25;;;;;;;15.57;8.07;;;8.90;84.40;;;;;;5114184;28;20023;-73
2021/10/26 04:08:49;;;;;;;13.05;8.25;;;8.90;84.60;;;;;;5114463;28;20111;-73
2021/10/26 04:11:23;;;;;;;14.80;9.05;;;8.90;84.60;;;;;;5095950;28;20023;-73
2021/10/26 04:13:49;;;;;;;10.73;7.25;;;9.00;84.70;;;;;;5113931;28;20114;-73
2021/10/26 04:16:15;;;;;;;9.00;6.32;;;9.00;84.90;;;;;;5113680;28;20027;-73
2021/10/26 04:18:41;;;;;;;11.45;6.55;;;9.00;84.80;;;;;;5113405;28;20077;-73
2021/10/26 04:21:08;;;;;;;12.60;7.50;;;9.10;85.20;;;;;;5113581;28;20020;-75
2021/10/26 04:23:34;;;;;;;11.13;7.07;;;9.10;85.00;;;;;;5095475;28;20357;-73
2021/10/26 04:26:01;;;;;;;11.48;6.53;;;9.10;85.10;;;;;;5113567;28;20072;-75
2021/10/26 04:28:27;;;;;;;16.23;7.57;;;9.20;84.90;;;;;;5113514;28;20023;-74
2021/10/26 04:30:53;;;;;;;11.55;6.85;;;9.20;84.90;;;;;;5112799;28;20036;-73
2021/10/26 04:33:19;;;;;;;12.85;7.13;;;9.20;84.70;;;;;;5113663;28;20034;-73
2021/10/26 04:35:46;;;;;;;11.40;6.88;;;9.20;84.80;;;;;;5113546;28;20024;-74
2021/10/26 04:38:12;;;;;;;11.70;6.57;;;9.20;84.60;;;;;;5113497;28;20043;-73
2021/10/26 04:40:37;;;;;;;9.68;6.75;;;9.20;84.50;;;;;;5113583;28;20035;-75
2021/10/26 04:43:03;;;;;;;14.98;7.38;;;9.20;84.40;;;;;;5113341;28;20035;-74
2021/10/26 04:45:29;;;;;;;13.05;7.57;;;9.20;84.30;;;;;;5113605;28;20385;-74
2021/10/26 04:47:55;;;;;;;14.52;7.63;;;9.20;84.10;;;;;;5113389;28;20012;-73
2021/10/26 04:50:21;;;;;;;13.98;8.20;;;9.20;84.50;;;;;;5113507;28;20032;-79
2021/10/26 04:52:47;;;;;;;12.30;7.70;;;9.20;84.40;;;;;;5113510;28;20081;-81
2021/10/26 04:55:13;;;;;;;15.68;8.43;;;9.20;84.50;;;;;;5113491;28;20464;-73
2021/10/26 04:57:40;;;;;;;13.80;8.15;;;9.30;84.40;;;;;;5113252;28;20027;-73
2021/10/26 05:00:09;;;;;;;14.23;8.55;;;9.30;84.40;;;;;;5113320;28;20111;-73
2021/10/26 05:02:35;;;;;;;13.15;7.40;;;9.30;84.10;;;;;;5113094;28;20020;-73
2021/10/26 05:05:02;;;;;;;12.43;7.53;;;9.30;84.20;;;;;;5113021;28;20055;-73
2021/10/26 05:07:27;;;;;;;15.13;8.20;;;9.30;84.30;;;;;;5113379;28;20438;-74
2021/10/26 05:09:53;;;;;;;13.35;8.73;;;9.30;84.40;;;;;;5094505;28;20122;-74
2021/10/26 05:12:18;;;;;;;14.30;7.95;;;9.20;84.70;;;;;;5113118;28;20051;-73
2021/10/26 05:14:44;;;;;;;14.52;7.68;;;9.30;84.90;;;;;;5112735;28;20027;-73
2021/10/26 05:17:12;;;;;;;14.35;8.00;;;9.20;84.80;;;;;;5112735;28;20024;-73
2021/10/26 05:19:39;;;;;;;13.80;7.80;;;9.20;84.80;;;;;;5112767;28;20079;-75
2021/10/26 05:22:05;;;;;;;14.23;8.45;;;9.20;84.70;;;;;;5112958;28;20035;-74
2021/10/26 05:24:33;;;;;;;12.02;8.23;;;9.30;84.80;;;;;;5112829;28;20031;-74
2021/10/26 05:26:59;;;;;;;14.52;8.02;;;9.30;84.90;;;;;;5112714;28;20019;-74
2021/10/26 05:29:25;;;;;;;15.45;9.43;;;9.30;85.00;;;;;;5112704;28;20024;-74
2021/10/26 05:31:50;;;;;;;15.80;9.00;;;9.30;84.80;;;;;;5112364;28;20026;-75
2021/10/26 05:34:17;;;;;;;15.48;8.32;;;9.40;84.90;;;;;;5112515;28;20106;-74
2021/10/26 05:36:42;;;;;;;16.98;9.20;;;9.30;84.70;;;;;;5112803;28;20027;-77
2021/10/26 05:39:09;;;;;;;15.68;8.52;;;9.30;84.50;;;;;;5112490;28;20090;-74
2021/10/26 05:41:37;;;;;;;10.82;7.28;;;9.40;84.60;;;;;;5114769;28;20053;-75
2021/10/26 05:44:04;;;;;;;15.60;8.38;;;9.40;84.60;;;;;;5116653;28;20502;-74
2021/10/26 05:46:29;;;;;;;17.25;7.93;;;9.40;84.60;;;;;;5116670;28;20415;-74
2021/10/26 05:48:55;;;;;;;15.00;8.38;;;9.40;84.40;;;;;;5116321;28;20023;-72
2021/10/26 05:51:21;;;;;;;13.70;8.30;;;9.30;84.70;;;;;;5116666;28;20073;-73
2021/10/26 05:53:46;;;;;;;14.52;8.25;;;9.30;84.90;;;;;;5116312;28;20047;-73
2021/10/26 05:56:12;;;;;;;12.40;7.50;;;9.40;85.10;;;;;;5116032;28;20034;-73
2021/10/26 05:58:38;;;;;;;12.30;7.75;;;9.40;85.20;;;;;;5116424;28;20023;-73
2021/10/26 06:01:03;;;;;;;15.80;9.73;;;9.50;85.00;;;;;;5116567;28;20031;-73
2021/10/26 06:03:31;;;;;;;19.55;12.07;;;9.50;84.90;;;;;;5116402;28;20149;-73
2021/10/26 06:05:57;;;;;;;22.00;13.57;;;9.50;84.90;;;;;;5116486;28;20031;-75
2021/10/26 06:08:22;;;;;;;18.48;13.40;;;9.50;84.90;;;;;;5116178;28;20015;-74
2021/10/26 06:10:55;;;;;;;18.48;12.65;;;9.50;84.90;;;;;;5116237;28;20024;-72
2021/10/26 06:13:28;;;;;;;19.75;11.55;;;9.50;85.00;;;;;;5115998;28;20028;-73
2021/10/26 06:15:53;;;;;;;18.30;9.80;;;9.50;85.30;;;;;;5116090;28;20019;-72
2021/10/26 06:18:19;;;;;;;15.77;9.05;;;9.50;85.10;;;;;;5115950;28;20031;-72
2021/10/26 06:20:45;;;;;;;16.02;9.20;;;9.50;85.10;;;;;;5116202;28;20019;-72
2021/10/26 06:23:11;;;;;;;18.17;9.75;;;9.50;86.10;;;;;;5115892;28;20024;-72
2021/10/26 06:25:37;;;;;;;22.52;10.55;;;9.50;85.20;;;;;;5115860;28;20027;-74
2021/10/26 06:28:03;;;;;;;15.68;10.32;;;9.50;85.70;;;;;;5116038;28;20024;-72
2021/10/26 06:30:29;;;;;;;18.90;9.80;;;9.60;85.70;;;;;;5116170;28;20110;-73
2021/10/26 06:32:55;;;;;;;24.77;12.63;;;9.60;85.70;;;;;;5115873;28;20058;-73
2021/10/26 06:35:20;;;;;;;22.00;12.32;;;9.60;85.80;;;;;;5115687;28;20059;-73
2021/10/26 06:37:46;;;;;;;26.73;12.55;;;9.60;85.70;;;;;;5097364;28;20043;-73
2021/10/26 06:40:13;;;;;;;22.35;11.60;;;9.60;85.80;;;;;;5115953;28;20023;-73
2021/10/26 06:42:40;;;;;;;21.83;12.50;;;9.70;85.70;;;;;;5115521;28;20441;-73
2021/10/26 06:45:06;;;;;;;23.70;12.80;;;9.70;85.60;;;;;;5115532;28;20414;-73
2021/10/26 06:47:31;;;;;;;22.33;13.23;;;9.80;85.30;;;;;;5115852;28;20098;-73
2021/10/26 06:49:57;;;;;;;25.27;12.98;;;9.90;85.20;;;;;;5115499;28;20383;-73
2021/10/26 06:52:22;;;;;;;22.83;11.98;;;9.90;85.00;;;;;;5114358;28;20022;-73
2021/10/26 06:54:48;;;;;;;20.33;12.15;;;10.00;85.00;;;;;;5115256;28;20463;-74
2021/10/26 06:57:16;;;;;;;25.90;13.90;;;9.90;84.70;;;;;;5115817;28;20026;-74
2021/10/26 06:59:41;;;;;;;25.27;12.68;;;10.00;84.70;;;;;;5115313;28;20036;-73
2021/10/26 07:02:07;;;;;;;23.02;13.00;;;10.00;84.60;;;;;;5115496;28;20032;-74
2021/10/26 07:04:35;;;;;;;23.50;11.18;;;10.10;84.50;;;;;;5115187;28;20028;-73
2021/10/26 07:07:01;;;;;;;20.25;11.57;;;10.10;84.40;;;;;;5115331;28;20028;-73
2021/10/26 07:09:26;;;;;;;24.83;11.55;;;10.20;84.20;;;;;;5115456;28;20023;-73
2021/10/26 07:11:52;;;;;;;18.15;10.63;;;10.30;84.30;;;;;;5115053;28;20433;-73
2021/10/26 07:14:18;;;;;;;17.80;9.02;;;10.30;84.20;;;;;;5115096;28;20035;-73
2021/10/26 07:16:44;;;;;;;21.92;11.02;;;10.30;84.90;;;;;;5114791;28;20415;-74
2021/10/26 07:19:10;;;;;;;18.42;10.30;;;10.40;84.00;;;;;;5115212;28;20023;-73
2021/10/26 07:21:36;;;;;;;23.67;11.07;;;10.50;83.90;;;;;;5114999;28;20024;-74
2021/10/26 07:24:03;;;;;;;20.10;10.10;;;10.60;83.50;;;;;;5114807;28;20045;-74
2021/10/26 07:26:29;;;;;;;16.80;9.82;;;10.70;83.30;;;;;;5096767;28;20054;-73
2021/10/26 07:28:56;;;;;;;13.88;8.55;;;10.70;82.90;;;;;;5114390;28;20064;-72
2021/10/26 07:31:24;;;;;;;16.73;9.48;;;10.80;82.50;;;;;;5114890;28;20028;-73
2021/10/26 07:33:56;;;;;;;16.92;9.23;;;10.80;82.30;;;;;;5114717;28;20023;-73
2021/10/26 07:36:25;;;;;;;19.30;9.68;;;10.90;82.40;;;;;;5114843;28;20028;-74
2021/10/26 07:38:58;;;;;;;22.05;10.98;;;11.00;87.30;;;;;;5096308;28;20051;-74
2021/10/26 07:41:23;;;;;;;19.08;10.43;;;11.30;88.10;;;;;;5114744;28;20024;-72
2021/10/26 07:43:49;;;;;;;17.20;8.73;;;11.40;85.10;;;;;;5114510;28;20574;-72
2021/10/26 07:46:15;;;;;;;16.55;8.30;;;11.40;83.40;;;;;;5116005;28;20487;-73
2021/10/26 07:48:41;;;;;;;14.73;8.40;;;11.60;82.40;;;;;;5120154;28;20032;-73
2021/10/26 07:51:06;;;;;;;14.02;8.70;;;11.80;81.60;;;;;;5121930;28;20027;-73
2021/10/26 07:53:33;;;;;;;12.95;7.95;;;12.10;81.00;;;;;;5114124;28;20043;-73
2021/10/26 07:56:00;;;;;;;12.73;7.75;;;12.50;79.60;;;;;;5114089;28;20019;-73
2021/10/26 07:58:26;;;;;;;13.73;7.30;;;12.90;77.50;;;;;;5096060;28;20380;-72
2021/10/26 08:00:53;;;;;;;15.05;7.80;;;13.30;76.00;;;;;;5114118;28;20024;-73
2021/10/26 08:03:19;;;;;;;18.70;9.18;;;13.60;74.50;;;;;;5113956;28;20016;-72
2021/10/26 08:05:45;;;;;;;11.25;7.88;;;13.90;72.90;;;;;;5115226;28;20028;-72
2021/10/26 08:08:11;;;;;;;14.45;8.13;;;14.00;71.80;;;;;;5114812;28;20020;-72
2021/10/26 08:10:37;;;;;;;12.95;7.30;;;14.10;71.90;;;;;;5095878;28;20038;-72
2021/10/26 08:13:03;;;;;;;11.50;7.00;;;14.20;71.70;;;;;;5113732;28;20047;-73
2021/10/26 08:15:29;;;;;;;12.95;7.25;;;14.20;71.40;;;;;;5113841;28;20106;-73
2021/10/26 08:17:55;;;;;;;14.38;7.35;;;14.40;71.20;;;;;;5113656;28;20091;-72
2021/10/26 08:20:21;;;;;;;11.25;6.65;;;14.30;71.00;;;;;;5113729;28;20043;-73
2021/10/26 08:22:47;;;;;;;10.98;6.50;;;14.40;70.70;;;;;;5113351;28;20020;-72
2021/10/26 08:25:19;;;;;;;11.90;6.05;;;14.60;70.40;;;;;;5113621;28;20059;-72
2021/10/26 08:27:45;;;;;;;11.15;6.25;;;14.70;70.20;;;;;;5113561;28;20660;-72
2021/10/26 08:30:17;;;;;;;10.48;5.75;;;14.60;70.40;;;;;;5113803;28;20020;-73
2021/10/26 08:32:50;;;;;;;11.52;6.07;;;14.80;70.30;;;;;;5113566;28;20027;-72
2021/10/26 08:35:24;;;;;;;11.00;5.57;;;15.00;69.60;;;;;;5113617;28;20024;-72
2021/10/26 08:37:52;;;;;;;12.98;6.03;;;15.00;68.60;;;;;;5108692;28;20098;-73
2021/10/26 08:40:19;;;;;;;12.65;5.43;;;15.20;67.90;;;;;;5093235;28;20484;-74
2021/10/26 08:42:49;;;;;;;9.70;5.10;;;15.20;66.30;;;;;;5093168;28;20044;-74
2021/10/26 08:45:23;;;;;;;11.20;5.63;;;15.10;66.30;;;;;;5092752;28;20135;-74
2021/10/26 08:47:49;;;;;;;11.23;5.70;;;14.70;67.50;;;;;;5092517;28;20020;-74
2021/10/26 08:50:15;;;;;;;9.93;5.60;;;14.40;69.00;;;;;;5093045;28;20024;-74
2021/10/26 08:52:42;;;;;;;10.70;6.20;;;14.30;69.80;;;;;;5093037;28;20502;-74
2021/10/26 08:55:09;;;;;;;10.20;6.47;;;14.20;70.20;;;;;;5093037;28;20028;-74
2021/10/26 08:57:35;;;;;;;10.70;6.15;;;14.00;71.30;;;;;;5092900;28;20020;-74
2021/10/26 09:00:07;;;;;;;10.93;6.45;;;13.90;71.70;;;;;;5093166;28;20073;-74
2021/10/26 09:02:41;;;;;;;9.38;6.05;;;14.00;71.80;;;;;;5093381;28;20376;-74
2021/10/26 09:05:18;;;;;;;10.82;5.97;;;14.00;72.60;;;;;;5092668;28;20077;-74
2021/10/26 09:08:05;;;;;;;11.52;6.47;;;14.20;71.80;;;;;;5093053;28;20380;-74
2021/10/26 09:10:32;;;;;;;12.68;6.55;;;14.60;70.90;;;;;;5093276;28;20039;-74
2021/10/26 09:18:38;;;;;;;8.90;4.05;;;15.50;67.20;;;;;;5094128;28;20031;-74
2021/10/26 09:21:05;;;;;;;6.05;2.08;;;15.40;64.60;;;;;;5096210;28;20028;-74
2021/10/26 09:23:30;;;;;;;7.75;2.47;;;15.30;61.20;;;;;;5096690;28;20063;-74
2021/10/26 09:25:59;;;;;;;4.65;1.90;;;15.20;61.80;;;;;;5096803;28;20055;-74
2021/10/26 09:28:26;;;;;;;5.90;2.17;;;14.90;62.90;;;;;;5096840;28;20024;-74
2021/10/26 09:31:02;;;;;;;7.07;2.50;;;14.60;63.80;;;;;;5097009;28;20064;-74
2021/10/26 09:33:32;;;;;;;6.70;2.05;;;14.60;64.40;;;;;;5097069;28;20028;-74
2021/10/26 09:36:24;;;;;;;7.28;1.92;;;14.20;65.30;;;;;;5078882;28;20088;-74
2021/10/26 09:39:04;;;;;;;5.75;2.10;;;14.00;67.30;;;;;;5111113;28;20089;-73
2021/10/26 09:41:37;;;;;;;4.90;2.00;;;13.90;67.90;;;;;;5118603;28;20440;-72
2021/10/26 09:44:17;;;;;;;7.38;2.55;;;13.60;68.20;;;;;;5122313;28;20038;-75
2021/10/26 09:46:55;;;;;;;4.90;2.50;;;13.50;68.70;;;;;;5118151;28;20417;-73
2021/10/26 09:49:45;;;;;;;5.30;2.40;;;13.50;68.80;;;;;;5120583;28;20390;-77
2021/10/26 09:52:13;;;;;;;5.82;1.95;;;13.60;69.00;;;;;;5117494;28;20027;-73
2021/10/26 09:54:43;;;;;;;5.30;2.42;;;13.70;68.30;;;;;;5116713;28;20027;-73
2021/10/26 09:57:16;;;;;;;5.18;2.33;;;13.60;67.90;;;;;;5102127;28;20047;-73
2021/10/26 09:59:52;;;;;;;4.90;2.60;;;13.70;68.50;;;;;;5116809;28;20035;-73
2021/10/26 10:02:25;;;;;;;6.25;3.03;;;13.80;68.70;;;;;;5117277;28;20027;-73
2021/10/26 10:04:56;;;;;;;6.90;3.13;;;13.90;67.50;;;;;;5098173;28;20058;-72
2021/10/26 10:07:36;;;;;;;7.00;2.50;;;13.90;67.40;;;;;;5116186;28;20015;-73
2021/10/26 10:10:09;;;;;;;6.07;2.70;;;13.90;67.70;;;;;;5115898;28;20019;-75
2021/10/26 10:12:38;;;;;;;6.80;3.13;;;14.00;68.10;;;;;;5116254;28;20565;-74
2021/10/26 10:15:06;;;;;;;10.15;3.10;;;14.10;67.80;;;;;;5116044;28;20024;-73
2021/10/26 10:17:35;;;;;;;7.38;2.70;;;14.40;67.60;;;;;;5116166;28;20027;-74
2021/10/26 10:20:02;;;;;;;5.72;3.00;;;14.50;65.80;;;;;;5116225;28;20120;-74
2021/10/26 10:22:30;;;;;;;6.63;2.75;;;14.50;65.60;;;;;;5116294;28;20023;-76
2021/10/26 10:25:01;;;;;;;6.80;2.60;;;14.70;66.00;;;;;;5126896;28;20395;-75
2021/10/26 10:27:29;;;;;;;4.95;2.85;;;14.80;65.30;;;;;;5123726;28;20026;-74
2021/10/26 10:29:56;;;;;;;12.52;3.00;;;14.80;65.40;;;;;;5115717;28;20030;-74
2021/10/26 10:32:26;;;;;;;7.50;2.30;;;14.80;64.00;;;;;;5115651;28;20024;-74
2021/10/26 10:34:53;;;;;;;3.95;2.25;;;14.70;64.40;;;;;;5115259;28;20676;-73
2021/10/26 10:37:30;;;;;;;4.40;2.63;;;14.80;63.90;;;;;;5115118;28;20024;-74
2021/10/26 10:40:02;;;;;;;6.85;1.73;;;14.60;62.70;;;;;;5096843;28;20402;-71
2021/10/26 10:42:30;;;;;;;4.63;1.70;;;14.60;62.90;;;;;;5115025;28;20499;-72
2021/10/26 10:45:02;;;;;;;6.22;2.20;;;14.40;64.70;;;;;;5114754;28;20031;-74
2021/10/26 10:47:40;;;;;;;6.93;1.98;;;14.30;65.50;;;;;;5115633;28;20015;-72
2021/10/26 10:50:23;;;;;;;8.93;2.03;;;14.40;64.00;;;;;;5115146;28;20020;-72
2021/10/26 10:53:06;;;;;;;5.68;1.70;;;14.60;64.20;;;;;;5114891;28;20023;-74
2021/10/26 10:55:33;;;;;;;4.63;2.00;;;14.80;63.80;;;;;;5116380;28;20066;-74
2021/10/26 10:58:40;;;;;;;4.65;1.92;;;15.00;62.30;;;;;;5115538;28;20050;-74
2021/10/26 11:01:20;;;;;;;7.40;2.10;;;15.50;60.10;;;;;;5115229;28;20038;-73
2021/10/26 11:03:47;;;;;;;8.55;2.00;;;15.30;60.60;;;;;;5115542;28;20035;-73
2021/10/26 11:06:40;;;;;;;3.78;1.83;;;15.30;61.40;;;;;;5117165;28;20019;-73
2021/10/26 11:09:27;;;;;;;3.63;1.90;;;15.20;61.80;;;;;;5115175;28;20024;-73
2021/10/26 11:12:27;;;;;;;6.05;2.15;;;15.20;61.40;;;;;;5115276;28;20031;-73
2021/10/26 11:15:02;;;;;;;4.00;1.90;;;15.20;61.10;;;;;;5115318;28;20031;-73
2021/10/26 11:20:08;;;;;;;5.22;1.88;;;15.00;61.80;;;;;;5115075;28;20430;-77
2021/10/26 11:23:01;;;;;;;4.35;1.27;;;14.80;62.90;;;;;;5097104;28;20038;-76
2021/10/26 11:25:40;;;;;;;4.32;1.45;;;14.70;63.50;;;;;;5115067;28;20036;-73
2021/10/26 11:28:17;;;;;;;2.60;1.55;;;14.60;63.40;;;;;;5115239;28;20043;-74
2021/10/26 11:30:43;;;;;;;3.25;1.65;;;14.60;63.70;;;;;;5114825;28;20023;-76
2021/10/26 11:33:15;;;;;;;6.20;2.08;;;14.50;64.00;;;;;;5114892;28;20020;-72
2021/10/26 11:35:50;;;;;;;4.82;1.77;;;14.60;63.90;;;;;;5114971;28;20028;-75
2021/10/26 11:38:23;;;;;;;4.75;2.10;;;14.70;64.00;;;;;;5114470;28;20036;-75
2021/10/26 11:41:07;;;;;;;7.57;1.85;;;14.70;63.60;;;;;;5114861;28;20027;-73
2021/10/26 11:43:46;;;;;;;6.30;1.80;;;14.80;63.00;;;;;;5115154;28;20092;-76
2021/10/26 11:46:16;;;;;;;5.97;2.00;;;14.70;62.70;;;;;;5114453;28;20032;-73
2021/10/26 11:48:47;;;;;;;3.83;1.98;;;14.70;63.50;;;;;;5114686;28;20075;-73
2021/10/26 11:51:29;;;;;;;3.92;1.90;;;14.70;63.70;;;;;;5114597;28;20081;-74
2021/10/26 11:53:59;;;;;;;6.50;2.15;;;14.70;63.20;;;;;;5114169;28;20128;-74
2021/10/26 11:56:28;;;;;;;6.40;2.60;;;14.70;62.70;;;;;;5127092;28;20026;-74
2021/10/26 11:59:18;;;;;;;6.43;2.10;;;14.60;63.00;;;;;;5113185;28;20055;-74
2021/10/26 12:01:48;;;;;;;7.80;1.95;;;14.60;63.10;;;;;;5111912;28;20023;-74
2021/10/26 12:04:18;;;;;;;5.72;2.30;;;14.70;62.90;;;;;;5115456;28;20035;-74
2021/10/26 12:06:45;;;;;;;5.60;2.30;;;14.90;62.90;;;;;;5115549;28;20043;-73
2021/10/26 12:09:13;;;;;;;3.70;2.08;;;14.80;62.90;;;;;;5118144;28;20034;-73
2021/10/26 12:11:41;;;;;;;4.43;2.05;;;14.80;62.70;;;;;;5096401;28;20028;-73
2021/10/26 12:14:30;;;;;;;2.90;1.95;;;14.80;62.80;;;;;;5095760;28;20472;-73
2021/10/26 12:17:05;;;;;;;8.20;1.92;;;14.70;63.10;;;;;;5088558;28;20074;-73
2021/10/26 12:19:32;;;;;;;7.20;2.45;;;14.70;62.80;;;;;;5098716;28;20024;-73
2021/10/26 12:22:01;;;;;;;4.78;1.95;;;14.70;62.90;;;;;;5095413;28;20027;-73
2021/10/26 12:24:30;;;;;;;6.05;2.00;;;14.50;63.90;;;;;;5113782;28;20086;-73
2021/10/26 12:27:05;;;;;;;6.05;2.30;;;14.60;64.00;;;;;;5113734;28;20046;-73
2021/10/26 12:29:36;;;;;;;4.40;2.38;;;14.70;63.60;;;;;;5095718;28;20565;-74
2021/10/26 12:32:08;;;;;;;4.43;2.28;;;14.80;63.00;;;;;;5113711;28;20053;-73
2021/10/26 12:34:43;;;;;;;5.78;2.10;;;14.90;62.50;;;;;;5113329;28;20024;-73
2021/10/26 12:37:19;;;;;;;;;;;14.90;62.30;;;;;;5113798;28;20047;-73
2021/10/26 12:39:52;;;;;;;4.25;1.90;;;15.00;62.30;;;;;;5112979;28;20342;-73
2021/10/26 12:42:35;;;;;;;6.13;1.63;;;15.10;62.20;;;;;;5113054;28;20023;-73
2021/10/26 12:45:03;;;;;;;3.95;1.65;;;14.90;61.00;;;;;;5113365;28;20031;-73
2021/10/26 12:47:31;;;;;;;8.73;2.67;;;14.90;61.40;;;;;;5113304;28;20106;-73
2021/10/26 12:49:57;;;;;;;6.85;2.00;;;14.90;62.30;;;;;;5112780;28;20059;-75
2021/10/26 12:52:23;;;;;;;6.40;2.60;;;14.90;62.80;;;;;;5094800;28;20062;-74
2021/10/26 12:54:50;;;;;;;5.20;2.35;;;14.90;61.80;;;;;;5094954;28;20020;-73
2021/10/26 12:57:34;;;;;;;7.60;2.42;;;14.90;61.80;;;;;;5112951;28;20059;-73
2021/10/26 13:00:22;;;;;;;6.22;1.92;;;15.00;61.60;;;;;;5113012;28;20495;-73
2021/10/26 13:02:48;;;;;;;9.90;3.20;;;15.10;60.90;;;;;;5112885;28;20020;-73
2021/10/26 13:05:13;;;;;;;5.25;2.10;;;15.20;60.70;;;;;;5112689;28;20101;-73